Time;durP1;ratioP1;P1;durP2;ratioP2;P2;SDS_P1;SDS_P2;PMS_P1;PMS_P2;Temp;Humidity;BMP_temperature;BMP_pressure;BME280_temperature;BME280_humidity;BME280_pressure;Samples;Min_cycle;Max_cycle;Signal;HPM_P1;HPM_P2
2023/01/18 00:01:37;;;;;;;59.00;21.40;;;;;;;-0.01;83.22;97774.45;106936;1275;22547;-59
2023/01/18 00:04:08;;;;;;;60.30;22.90;;;;;;;0.03;83.20;97768.80;107037;1275;22530;-58
2023/01/18 00:06:40;;;;;;;52.70;23.10;;;;;;;0.06;83.16;97768.40;106915;1275;22573;-57
2023/01/18 00:09:11;;;;;;;62.40;22.30;;;;;;;0.09;83.21;97772.10;106940;1275;22525;-57
2023/01/18 00:11:42;;;;;;;59.30;23.50;;;;;;;0.13;83.31;97776.52;106958;1274;22534;-57
2023/01/18 00:14:13;;;;;;;49.90;20.70;;;;;;;0.16;83.31;97778.48;106965;1275;22981;-58
2023/01/18 00:16:44;;;;;;;52.90;21.70;;;;;;;0.18;83.30;97776.18;106898;1273;24315;-58
2023/01/18 00:19:15;;;;;;;56.40;21.50;;;;;;;0.21;83.47;97770.39;106893;1261;24045;-59
2023/01/18 00:21:46;;;;;;;51.00;20.40;;;;;;;0.24;83.53;97771.04;107010;1275;22606;-58
2023/01/18 00:24:17;;;;;;;50.20;21.70;;;;;;;0.26;83.60;97769.05;107052;1262;22654;-59
2023/01/18 00:26:48;;;;;;;48.80;19.30;;;;;;;0.29;83.68;97764.57;106966;1273;22539;-58
2023/01/18 00:29:19;;;;;;;49.90;21.10;;;;;;;0.32;83.84;97760.77;107100;1268;24820;-58
2023/01/18 00:31:50;;;;;;;50.00;20.80;;;;;;;0.36;83.96;97757.92;107008;1275;22538;-58
2023/01/18 00:34:21;;;;;;;47.50;19.50;;;;;;;0.39;83.96;97761.68;106948;1269;24282;-58
2023/01/18 00:36:52;;;;;;;51.80;20.10;;;;;;;0.42;83.85;97764.46;106938;1275;24148;-58
2023/01/18 00:39:24;;;;;;;56.50;21.90;;;;;;;0.44;83.95;97765.26;106842;1276;24240;-59
2023/01/18 00:44:43;;;;;;;50.70;19.30;;;;;;;0.48;83.89;97771.16;106921;1273;22500;-59
2023/01/18 00:47:14;;;;;;;51.30;20.70;;;;;;;0.49;83.93;97773.03;107005;1273;27563;-58
2023/01/18 00:49:45;;;;;;;52.60;19.70;;;;;;;0.50;83.95;97775.89;106928;1273;24912;-59
2023/01/18 00:52:16;;;;;;;52.70;20.30;;;;;;;0.50;84.00;97771.01;107025;1261;22539;-58
2023/01/18 00:54:47;;;;;;;51.70;19.60;;;;;;;0.50;84.00;97770.66;106966;1274;22679;-59
2023/01/18 00:57:18;;;;;;;53.40;20.30;;;;;;;0.51;84.05;97771.02;106989;1273;25616;-57
2023/01/18 00:59:49;;;;;;;53.50;20.70;;;;;;;0.52;83.89;97761.95;106936;1275;24311;-57
2023/01/18 01:02:20;;;;;;;47.30;19.70;;;;;;;0.53;83.96;97754.85;106889;1275;25389;-56
2023/01/18 01:07:39;;;;;;;54.00;20.60;;;;;;;0.53;84.00;97742.83;106928;1273;22727;-58
2023/01/18 01:10:11;;;;;;;50.00;20.30;;;;;;;0.53;84.10;97739.02;106975;1269;22712;-58
2023/01/18 01:26:45;;;;;;;43.80;18.40;;;;;;;0.55;84.33;97713.80;106925;1273;22540;-58
2023/01/18 01:29:16;;;;;;;50.10;19.70;;;;;;;0.54;84.37;97711.48;106988;1273;24318;-58
2023/01/18 01:31:48;;;;;;;49.20;19.80;;;;;;;0.55;84.41;97709.27;106908;1273;22486;-58
2023/01/18 01:34:18;;;;;;;49.40;20.20;;;;;;;0.56;84.56;97706.92;107051;1260;22746;-58
2023/01/18 01:36:50;;;;;;;53.80;21.20;;;;;;;0.56;84.54;97706.44;107010;1275;22559;-58
2023/01/18 01:39:21;;;;;;;49.50;21.20;;;;;;;0.56;84.60;97713.02;106960;1275;25275;-58
2023/01/18 01:41:52;;;;;;;48.40;21.00;;;;;;;0.57;84.69;97709.79;106930;1273;25537;-58
2023/01/18 01:44:50;;;;;;;53.10;19.80;;;;;;;0.57;84.81;97704.05;107032;1265;22525;-62
2023/01/18 01:47:32;;;;;;;53.90;22.70;;;;;;;0.56;84.86;97698.15;106946;1275;25252;-59
2023/01/18 01:50:08;;;;;;;49.50;20.30;;;;;;;0.56;84.85;97703.08;106967;1273;22488;-59
2023/01/18 01:52:43;;;;;;;52.00;21.00;;;;;;;0.56;84.90;97707.92;106966;1275;22633;-58
2023/01/18 01:55:20;;;;;;;47.40;20.90;;;;;;;0.57;84.88;97709.90;107079;1271;22543;-58
2023/01/18 01:57:55;;;;;;;51.30;21.90;;;;;;;0.58;84.84;97714.05;107034;1274;22524;-59
2023/01/18 02:00:26;;;;;;;49.80;20.60;;;;;;;0.59;84.86;97721.14;106969;1262;24137;-58
2023/01/18 02:03:00;;;;;;;51.90;21.20;;;;;;;0.58;84.77;97719.59;106974;1273;23008;-58
2023/01/18 02:05:34;;;;;;;52.10;22.00;;;;;;;0.57;84.72;97712.84;106933;1275;22912;-60
2023/01/18 02:08:10;;;;;;;47.50;21.80;;;;;;;0.57;84.88;97704.30;106971;1265;22534;-58
2023/01/18 02:10:41;;;;;;;51.40;20.70;;;;;;;0.57;84.97;97699.73;107065;1275;23028;-57
2023/01/18 02:13:12;;;;;;;51.90;22.40;;;;;;;0.60;84.98;97697.57;106963;1260;22591;-58
2023/01/18 02:15:52;;;;;;;56.50;22.80;;;;;;;0.59;85.10;97696.55;107107;1275;24248;-57
2023/01/18 02:18:28;;;;;;;54.70;22.10;;;;;;;0.59;85.21;97697.29;107143;1275;22537;-58
2023/01/18 02:21:13;;;;;;;52.40;21.00;;;;;;;0.59;85.21;97699.00;107067;1269;25456;-58
2023/01/18 02:24:10;;;;;;;56.80;22.10;;;;;;;0.59;85.27;97704.64;107137;1275;22545;-60
2023/01/18 02:26:59;;;;;;;54.90;23.70;;;;;;;0.59;85.27;97705.52;107022;1268;22655;-60
2023/01/18 02:29:44;;;;;;;51.70;21.30;;;;;;;0.61;85.27;97699.13;106908;1276;22531;-58
2023/01/18 02:32:28;;;;;;;54.80;22.20;;;;;;;0.62;85.22;97694.51;106822;1262;24188;-58
2023/01/18 02:35:07;;;;;;;55.40;22.30;;;;;;;0.64;85.10;97700.83;106748;1277;22527;-57
2023/01/18 02:37:45;;;;;;;78.20;33.60;;;;;;;0.66;85.29;97707.05;106895;1277;26542;-58
2023/01/18 02:40:23;;;;;;;77.70;33.00;;;;;;;0.67;85.38;97710.41;106802;1271;24245;-58
2023/01/18 02:48:40;;;;;;;72.00;29.50;;;;;;;0.66;85.55;97726.32;106871;1277;24263;-58
2023/01/18 02:51:11;;;;;;;66.00;28.20;;;;;;;0.68;85.53;97730.95;107159;1277;22560;-59
2023/01/18 02:53:45;;;;;;;74.70;29.50;;;;;;;0.68;85.52;97724.66;106788;1277;22533;-58
2023/01/18 02:56:21;;;;;;;70.60;27.80;;;;;;;0.68;85.58;97724.70;106824;1274;22648;-58
2023/01/18 02:58:57;;;;;;;69.50;28.60;;;;;;;0.69;85.67;97717.20;106815;1273;22542;-59
2023/01/18 03:01:33;;;;;;;66.20;27.40;;;;;;;0.71;85.55;97716.27;106839;1276;23985;-57
2023/01/18 03:04:09;;;;;;;67.10;27.30;;;;;;;0.71;85.65;97712.96;106990;1276;26019;-58
2023/01/18 03:06:44;;;;;;;68.10;29.60;;;;;;;0.70;85.78;97707.08;106793;1277;22527;-59
2023/01/18 03:09:17;;;;;;;68.80;30.80;;;;;;;0.72;85.77;97709.20;106889;1270;24305;-58
2023/01/18 03:11:56;;;;;;;62.80;27.20;;;;;;;0.73;85.76;97713.62;106939;1277;22530;-57
2023/01/18 03:14:41;;;;;;;69.50;29.40;;;;;;;0.74;85.73;97714.04;106893;1262;26138;-56
2023/01/18 03:17:22;;;;;;;62.70;27.80;;;;;;;0.76;85.84;97721.05;106700;1277;23002;-58
2023/01/18 03:20:06;;;;;;;64.10;27.20;;;;;;;0.78;85.92;97723.19;106955;1274;22549;-59
2023/01/18 03:25:33;;;;;;;59.30;27.00;;;;;;;0.79;85.92;97733.05;106844;1270;24312;-58
2023/01/18 03:33:53;;;;;;;70.00;27.10;;;;;;;0.81;86.14;97732.17;107026;1275;22730;-59
2023/01/18 03:36:31;;;;;;;63.30;28.00;;;;;;;0.83;86.19;97726.61;106936;1273;22496;-59
2023/01/18 03:39:05;;;;;;;63.60;27.60;;;;;;;0.84;86.25;97727.54;107149;1275;23885;-60
2023/01/18 03:41:40;;;;;;;62.30;26.00;;;;;;;0.87;86.34;97724.13;107078;1275;25890;-60
2023/01/18 03:44:16;;;;;;;63.20;25.60;;;;;;;0.89;86.47;97729.30;106851;1275;199372;-59
2023/01/18 03:46:47;;;;;;;57.60;25.50;;;;;;;0.93;86.61;97728.58;107017;1269;24250;-59
2023/01/18 03:49:19;;;;;;;59.40;27.20;;;;;;;0.95;86.55;97727.20;106967;1262;22618;-59
2023/01/18 03:52:01;;;;;;;58.10;25.80;;;;;;;0.97;86.63;97724.89;106699;1275;22743;-60
2023/01/18 03:54:40;;;;;;;63.00;26.10;;;;;;;0.98;86.71;97726.55;107028;1274;25429;-59
2023/01/18 03:57:16;;;;;;;56.80;26.00;;;;;;;0.98;86.77;97726.31;107082;1275;22531;-58
2023/01/18 03:59:48;;;;;;;65.60;28.70;;;;;;;1.00;86.87;97722.39;107045;1269;25684;-59
2023/01/18 04:02:20;;;;;;;59.90;27.40;;;;;;;1.02;87.04;97719.36;106935;1275;23001;-60
2023/01/18 04:04:56;;;;;;;58.40;26.60;;;;;;;1.04;87.08;97714.52;107027;1269;25376;-58
2023/01/18 04:07:27;;;;;;;61.60;25.80;;;;;;;1.05;87.05;97712.49;107094;1275;25416;-65
2023/01/18 04:09:58;;;;;;;62.20;26.10;;;;;;;1.07;87.34;97704.71;106962;1275;23923;-58
2023/01/18 04:12:30;;;;;;;61.90;26.10;;;;;;;1.09;87.38;97698.41;106944;1275;25879;-60
2023/01/18 04:15:01;;;;;;;53.40;24.70;;;;;;;1.11;87.45;97688.24;106925;1275;24322;-58
2023/01/18 04:17:32;;;;;;;58.90;24.80;;;;;;;1.12;87.54;97683.61;106963;1275;23022;-58
2023/01/18 04:20:04;;;;;;;67.00;29.10;;;;;;;1.14;87.58;97682.05;106970;1268;22529;-59
2023/01/18 04:22:34;;;;;;;68.70;30.60;;;;;;;1.15;87.71;97678.11;106968;1275;22543;-58
2023/01/18 04:25:06;;;;;;;74.00;29.50;;;;;;;1.16;87.55;97666.59;107098;1275;22622;-60
2023/01/18 04:27:37;;;;;;;69.00;29.20;;;;;;;1.17;87.69;97665.45;107076;1275;22605;-60
2023/01/18 04:30:11;;;;;;;68.00;28.70;;;;;;;1.17;87.69;97672.27;106874;1275;24222;-60
2023/01/18 04:32:45;;;;;;;61.60;27.70;;;;;;;1.19;87.83;97670.98;107043;1274;22553;-60
2023/01/18 04:35:16;;;;;;;62.20;28.80;;;;;;;1.21;87.90;97677.75;107012;1275;22616;-59
2023/01/18 04:37:53;;;;;;;64.00;25.80;;;;;;;1.22;88.19;97689.77;106899;1275;22582;-58
2023/01/18 04:40:23;;;;;;;55.60;24.50;;;;;;;1.21;88.22;97694.41;107184;1261;22552;-58
2023/01/18 04:42:55;;;;;;;56.30;24.70;;;;;;;1.22;88.41;97698.86;106711;1273;24217;-58
2023/01/18 04:45:26;;;;;;;54.10;24.70;;;;;;;1.22;88.47;97700.00;107179;1270;23473;-60
2023/01/18 04:47:57;;;;;;;59.50;26.70;;;;;;;1.23;88.43;97700.76;106870;1274;23671;-58
2023/01/18 04:50:28;;;;;;;56.10;24.90;;;;;;;1.24;88.44;97695.67;106886;1275;22742;-58
2023/01/18 04:52:59;;;;;;;55.90;26.30;;;;;;;1.25;88.52;97696.79;106936;1275;22549;-58
2023/01/18 04:55:30;;;;;;;54.10;24.50;;;;;;;1.25;88.45;97693.01;106951;1262;25508;-58
2023/01/18 04:58:01;;;;;;;57.50;23.70;;;;;;;1.27;88.58;97697.84;106891;1276;22538;-58
2023/01/18 05:00:32;;;;;;;53.20;24.00;;;;;;;1.26;88.94;97699.32;106914;1276;22526;-59
2023/01/18 05:03:03;;;;;;;52.80;25.20;;;;;;;1.26;89.01;97693.20;106669;1275;22544;-56
2023/01/18 05:05:34;;;;;;;97.80;50.60;;;;;;;1.26;89.13;97692.66;106690;1265;25430;-54
2023/01/18 05:08:05;;;;;;;70.20;37.80;;;;;;;1.25;89.14;97701.44;108415;1265;22537;-57
2023/01/18 05:10:36;;;;;;;77.70;36.00;;;;;;;1.25;89.29;97723.77;106785;1261;22537;-55
2023/01/18 05:13:08;;;;;;;68.30;33.00;;;;;;;1.28;89.40;97731.41;106782;1271;25517;-57
2023/01/18 05:15:38;;;;;;;69.60;34.40;;;;;;;1.28;89.49;97732.06;106830;1270;26611;-57
2023/01/18 05:18:09;;;;;;;68.40;32.10;;;;;;;1.29;89.51;97735.83;106820;1274;22549;-64
2023/01/18 05:20:40;;;;;;;70.00;34.70;;;;;;;1.30;89.57;97735.45;106779;1263;22543;-56
2023/01/18 05:23:13;;;;;;;63.70;33.70;;;;;;;1.30;89.51;97723.20;106807;1275;24304;-57
2023/01/18 05:25:51;;;;;;;63.30;34.50;;;;;;;1.30;89.57;97715.13;106843;1275;22542;-60
2023/01/18 05:28:27;;;;;;;63.20;33.00;;;;;;;1.31;89.60;97709.48;106725;1275;24308;-58
2023/01/18 05:30:58;;;;;;;57.90;28.30;;;;;;;1.32;89.94;97709.04;106681;1276;24204;-60
2023/01/18 05:33:29;;;;;;;52.50;25.70;;;;;;;1.31;89.97;97706.89;106884;1269;24282;-58
2023/01/18 05:36:00;;;;;;;56.30;25.00;;;;;;;1.30;89.86;97707.21;107772;1270;22527;-57
2023/01/18 05:38:31;;;;;;;55.50;25.20;;;;;;;1.29;89.85;97701.90;106557;1277;23271;-56
2023/01/18 05:41:02;;;;;;;54.50;26.30;;;;;;;1.29;90.04;97701.56;106647;1277;24241;-60
2023/01/18 05:43:33;;;;;;;49.80;22.90;;;;;;;1.28;90.13;97694.34;106809;1274;22530;-59
2023/01/18 05:46:04;;;;;;;48.60;21.70;;;;;;;1.25;90.14;97694.65;106719;1277;22689;-58
2023/01/18 05:48:35;;;;;;;54.90;23.60;;;;;;;1.23;90.13;97688.09;108855;1277;22664;-61
2023/01/18 05:51:11;;;;;;;51.60;23.80;;;;;;;1.22;90.33;97685.66;106913;1268;24206;-58
2023/01/18 05:53:46;;;;;;;47.40;21.90;;;;;;;1.20;90.36;97682.14;106687;1272;22542;-59
2023/01/18 05:56:18;;;;;;;53.80;25.10;;;;;;;1.20;90.47;97680.88;106547;1274;22474;-59
2023/01/18 05:58:48;;;;;;;55.30;24.90;;;;;;;1.22;90.54;97679.30;106602;1277;22543;-58
2023/01/18 06:01:26;;;;;;;53.60;23.80;;;;;;;1.23;90.68;97682.59;106715;1255;25240;-61
2023/01/18 06:03:57;;;;;;;49.40;23.50;;;;;;;1.24;90.65;97694.43;106827;1270;22798;-57
2023/01/18 06:06:28;;;;;;;48.70;20.60;;;;;;;1.24;90.76;97699.54;106756;1270;22536;-58
2023/01/18 06:09:00;;;;;;;51.10;22.30;;;;;;;1.24;90.85;97708.73;106904;1277;25513;-60
2023/01/18 06:11:30;;;;;;;45.60;20.80;;;;;;;1.23;90.85;97712.77;106782;1277;23908;-58
2023/01/18 06:14:01;;;;;;;49.40;22.40;;;;;;;1.21;90.83;97714.27;106998;1266;23154;-59
2023/01/18 06:16:32;;;;;;;45.40;20.70;;;;;;;1.21;90.82;97711.45;106796;1262;25434;-61
2023/01/18 06:19:04;;;;;;;49.70;21.70;;;;;;;1.23;90.85;97708.91;106828;1277;25280;-57
2023/01/18 06:21:35;;;;;;;50.00;22.80;;;;;;;1.24;91.05;97712.63;106954;1255;24273;-59
2023/01/18 06:24:07;;;;;;;46.60;21.30;;;;;;;1.24;91.00;97716.48;106772;1277;24212;-59
2023/01/18 06:26:38;;;;;;;46.00;20.60;;;;;;;1.25;91.07;97712.55;107635;1277;22487;-59
2023/01/18 06:29:09;;;;;;;48.70;20.90;;;;;;;1.26;91.18;97709.60;106783;1275;24192;-59
2023/01/18 06:31:41;;;;;;;34.70;15.40;;;;;;;1.26;91.25;97714.00;106958;1265;22542;-60
2023/01/18 06:34:12;;;;;;;45.60;20.50;;;;;;;1.24;91.38;97710.64;106823;1272;25250;-60
2023/01/18 06:36:44;;;;;;;40.30;17.60;;;;;;;1.23;91.48;97707.48;106803;1277;22530;-58
2023/01/18 06:39:15;;;;;;;44.30;19.40;;;;;;;1.24;91.43;97707.08;106900;1277;24233;-57
2023/01/18 06:41:45;;;;;;;39.80;18.00;;;;;;;1.25;91.56;97700.89;106708;1277;22602;-58
2023/01/18 06:44:16;;;;;;;45.60;19.40;;;;;;;1.25;91.73;97697.48;106718;1274;25449;-60
2023/01/18 06:46:47;;;;;;;46.60;20.60;;;;;;;1.26;91.75;97690.97;106666;1276;24216;-60
2023/01/18 06:49:18;;;;;;;44.50;18.70;;;;;;;1.28;91.81;97690.95;106670;1262;25735;-59
2023/01/18 06:51:49;;;;;;;39.30;18.30;;;;;;;1.27;91.90;97686.77;106660;1277;25969;-59
2023/01/18 06:54:20;;;;;;;44.20;19.10;;;;;;;1.27;91.93;97683.94;106671;1274;22544;-59
2023/01/18 06:56:51;;;;;;;41.30;18.40;;;;;;;1.27;92.24;97677.44;106642;1274;22531;-59
2023/01/18 06:59:22;;;;;;;37.70;17.70;;;;;;;1.27;92.04;97682.63;106640;1275;22594;-59
2023/01/18 07:01:53;;;;;;;41.50;17.80;;;;;;;1.27;92.10;97680.09;106570;1277;22790;-59
2023/01/18 07:04:24;;;;;;;45.00;18.80;;;;;;;1.25;92.31;97679.36;106678;1262;27806;-61
2023/01/18 07:06:55;;;;;;;33.40;16.30;;;;;;;1.23;92.31;97677.44;106688;1277;22539;-58
2023/01/18 07:09:26;;;;;;;42.60;17.50;;;;;;;1.21;92.40;97675.20;106619;1277;22544;-59
2023/01/18 07:11:57;;;;;;;37.40;16.30;;;;;;;1.20;92.33;97674.83;106691;1277;24227;-59
2023/01/18 07:14:28;;;;;;;45.80;19.10;;;;;;;1.19;92.34;97684.41;106600;1277;22614;-56
2023/01/18 07:16:58;;;;;;;36.80;16.90;;;;;;;1.21;92.53;97681.35;106752;1263;25259;-60
2023/01/18 07:19:29;;;;;;;35.30;15.40;;;;;;;1.21;92.60;97679.26;106578;1270;24255;-59
2023/01/18 07:22:01;;;;;;;33.70;15.50;;;;;;;1.21;92.48;97679.20;106679;1277;22588;-59
2023/01/18 07:24:32;;;;;;;33.70;14.80;;;;;;;1.19;92.70;97679.52;106596;1277;22581;-60
2023/01/18 07:27:03;;;;;;;39.40;15.70;;;;;;;1.20;92.76;97683.88;106666;1277;22772;-58
2023/01/18 07:29:34;;;;;;;33.90;14.30;;;;;;;1.20;92.81;97685.84;106497;1275;23143;-56
2023/01/18 07:32:05;;;;;;;36.60;16.20;;;;;;;1.21;92.77;97688.48;106597;1262;24266;-58
2023/01/18 07:34:36;;;;;;;41.90;16.60;;;;;;;1.23;92.84;97695.56;106662;1275;22642;-56
2023/01/18 07:37:07;;;;;;;35.00;15.20;;;;;;;1.26;92.85;97698.06;106494;1270;24436;-58
2023/01/18 07:39:39;;;;;;;42.30;18.20;;;;;;;1.29;92.94;97703.77;106645;1275;22573;-56
2023/01/18 07:42:11;;;;;;;70.00;28.70;;;;;;;1.32;92.79;97706.69;106674;1275;24263;-58
2023/01/18 07:44:42;;;;;;;57.10;24.90;;;;;;;1.32;92.96;97700.65;106729;1275;22531;-58
2023/01/18 07:47:13;;;;;;;55.10;23.60;;;;;;;1.33;93.00;97700.17;106667;1275;22526;-57
2023/01/18 07:49:44;;;;;;;47.50;18.50;;;;;;;1.35;93.14;97695.68;106653;1274;22490;-58
2023/01/18 07:52:15;;;;;;;39.10;17.40;;;;;;;1.34;93.12;97698.08;106676;1275;22531;-58
2023/01/18 07:54:45;;;;;;;35.20;14.60;;;;;;;1.36;93.18;97699.12;106692;1275;25615;-57
2023/01/18 07:57:17;;;;;;;33.40;13.60;;;;;;;1.37;93.20;97701.36;106735;1254;22543;-58
2023/01/18 07:59:47;;;;;;;33.40;14.50;;;;;;;1.37;93.28;97702.23;106920;1265;26586;-58
2023/01/18 08:02:18;;;;;;;29.30;12.60;;;;;;;1.38;93.32;97702.80;106480;1269;26398;-59
2023/01/18 08:04:51;;;;;;;35.10;14.00;;;;;;;1.37;93.28;97705.73;106553;1273;22599;-58
2023/01/18 08:07:22;;;;;;;35.20;15.00;;;;;;;1.38;93.35;97708.69;106597;1272;24420;-57
2023/01/18 08:09:53;;;;;;;37.30;15.40;;;;;;;1.39;93.43;97709.95;106573;1276;24196;-56
2023/01/18 08:12:24;;;;;;;35.20;15.50;;;;;;;1.42;93.54;97709.02;106566;1276;22668;-60
2023/01/18 08:14:55;;;;;;;31.70;13.50;;;;;;;1.43;93.56;97710.35;106555;1275;25130;-56
2023/01/18 08:17:26;;;;;;;36.50;16.50;;;;;;;1.43;93.84;97717.20;106518;1276;22741;-58
2023/01/18 08:19:57;;;;;;;38.30;15.60;;;;;;;1.43;93.66;97715.15;106578;1276;22534;-57
2023/01/18 08:22:28;;;;;;;35.20;16.00;;;;;;;1.47;93.83;97721.39;106613;1270;23016;-58
2023/01/18 08:24:59;;;;;;;36.80;15.60;;;;;;;1.48;93.89;97724.46;106540;1276;22873;-55
2023/01/18 08:27:30;;;;;;;37.10;16.20;;;;;;;1.50;93.90;97724.52;106576;1275;22546;-57
2023/01/18 08:30:01;;;;;;;40.80;17.00;;;;;;;1.51;93.94;97727.82;106615;1275;22537;-58
2023/01/18 08:32:32;;;;;;;39.70;17.20;;;;;;;1.54;93.91;97729.65;106641;1275;22520;-58
2023/01/18 08:35:04;;;;;;;38.60;17.50;;;;;;;1.56;93.95;97734.23;106630;1274;24234;-59
2023/01/18 08:37:35;;;;;;;38.10;17.40;;;;;;;1.58;93.99;97743.21;106648;1276;22586;-59
2023/01/18 08:40:08;;;;;;;41.80;17.20;;;;;;;1.59;93.91;97746.13;106592;1276;26644;-59
2023/01/18 08:42:39;;;;;;;41.30;18.30;;;;;;;1.62;94.10;97749.52;106697;1275;25471;-59
2023/01/18 08:45:12;;;;;;;38.70;18.00;;;;;;;1.64;94.06;97753.55;106554;1270;24252;-57
2023/01/18 08:47:43;;;;;;;42.00;19.40;;;;;;;1.65;94.01;97759.15;106648;1275;22532;-58
2023/01/18 08:50:15;;;;;;;39.20;18.30;;;;;;;1.69;94.01;97762.36;106526;1275;23154;-58
2023/01/18 08:52:46;;;;;;;40.50;18.90;;;;;;;1.71;94.06;97766.18;106666;1272;22679;-59
2023/01/18 08:55:17;;;;;;;37.20;17.40;;;;;;;1.73;94.03;97764.67;106542;1275;25357;-59
2023/01/18 08:57:48;;;;;;;41.10;18.60;;;;;;;1.75;94.17;97754.53;106722;1275;24386;-56
2023/01/18 09:00:22;;;;;;;45.30;21.10;;;;;;;1.75;94.26;97751.05;106547;1254;25588;-59
2023/01/18 09:02:53;;;;;;;45.10;19.30;;;;;;;1.76;94.17;97754.20;106771;1276;24706;-59
2023/01/18 09:05:25;;;;;;;41.20;18.80;;;;;;;1.80;94.25;97749.36;106584;1272;24361;-57
2023/01/18 09:07:57;;;;;;;42.10;19.00;;;;;;;1.80;94.31;97748.85;106587;1273;22529;-59
2023/01/18 09:10:28;;;;;;;37.80;16.80;;;;;;;1.81;94.27;97751.32;106669;1260;25347;-57
2023/01/18 09:12:58;;;;;;;43.10;19.30;;;;;;;1.79;94.04;97760.95;106612;1268;25265;-58
2023/01/18 09:15:29;;;;;;;36.70;17.40;;;;;;;1.79;94.08;97770.95;106772;1270;22538;-58
2023/01/18 09:18:04;;;;;;;40.90;18.60;;;;;;;1.77;94.05;97779.13;106592;1275;24250;-58
2023/01/18 09:20:36;;;;;;;43.00;18.50;;;;;;;1.74;94.06;97786.73;106636;1275;24221;-57
2023/01/18 09:23:08;;;;;;;44.40;20.60;;;;;;;1.72;94.02;97790.21;106578;1275;25386;-58
2023/01/18 09:25:39;;;;;;;42.90;20.10;;;;;;;1.71;94.07;97792.39;106576;1275;22538;-58
2023/01/18 09:28:11;;;;;;;43.70;21.30;;;;;;;1.71;94.00;97790.80;106533;1270;25364;-58
2023/01/18 09:30:42;;;;;;;46.50;21.50;;;;;;;1.69;93.85;97788.56;106549;1275;24255;-58
2023/01/18 09:33:13;;;;;;;49.20;20.80;;;;;;;1.64;93.79;97794.15;106525;1275;24266;-58
2023/01/18 09:35:44;;;;;;;46.00;21.70;;;;;;;1.64;93.82;97798.13;106561;1275;25268;-59
2023/01/18 09:38:15;;;;;;;40.70;20.00;;;;;;;1.63;93.86;97798.56;106554;1270;24333;-58
2023/01/18 09:40:47;;;;;;;42.20;20.30;;;;;;;1.61;93.81;97798.30;106525;1275;22531;-60
2023/01/18 09:43:24;;;;;;;46.00;21.80;;;;;;;1.61;93.93;97796.09;106610;1275;24209;-58
2023/01/18 09:45:56;;;;;;;43.70;19.60;;;;;;;1.59;94.04;97795.02;106590;1275;25266;-57
2023/01/18 09:48:32;;;;;;;48.00;21.40;;;;;;;1.57;93.94;97796.30;106605;1270;24200;-59
2023/01/18 09:51:08;;;;;;;41.30;18.90;;;;;;;1.58;94.02;97798.60;106636;1275;24257;-56
2023/01/18 09:53:56;;;;;;;44.20;21.00;;;;;;;1.58;93.93;97801.05;106655;1275;24412;-58
2023/01/18 09:56:32;;;;;;;44.60;18.90;;;;;;;1.58;94.07;97799.70;106513;1270;25402;-57
2023/01/18 09:59:17;;;;;;;40.80;20.00;;;;;;;1.54;94.02;97797.70;106644;1275;24727;-57
2023/01/18 10:01:50;;;;;;;39.80;19.70;;;;;;;1.54;94.08;97788.77;106719;1262;22531;-60
2023/01/18 10:04:25;;;;;;;41.20;19.70;;;;;;;1.55;94.19;97791.21;106757;1267;22534;-61
2023/01/18 10:06:59;;;;;;;39.30;18.30;;;;;;;1.57;94.34;97794.39;106722;1275;22545;-59
2023/01/18 10:09:33;;;;;;;39.20;17.70;;;;;;;1.60;94.44;97786.77;106652;1275;24249;-57
2023/01/18 10:12:15;;;;;;;44.60;20.70;;;;;;;1.63;94.67;97781.67;106524;1270;22531;-58
2023/01/18 10:14:52;;;;;;;40.10;18.40;;;;;;;1.66;94.68;97773.78;106521;1275;22534;-57
2023/01/18 10:17:37;;;;;;;42.20;19.20;;;;;;;1.71;94.81;97773.89;106535;1273;22534;-58
2023/01/18 10:20:23;;;;;;;36.70;17.20;;;;;;;1.76;94.68;97778.61;106642;1276;22606;-58
2023/01/18 10:22:57;;;;;;;36.00;15.90;;;;;;;1.76;94.75;97780.64;106781;1270;22541;-58
2023/01/18 10:25:36;;;;;;;34.90;16.60;;;;;;;1.73;94.83;97785.31;106551;1275;25176;-57
2023/01/18 10:28:24;;;;;;;40.50;16.80;;;;;;;1.72;94.82;97790.01;106807;1269;24265;-57
2023/01/18 10:31:08;;;;;;;36.70;16.60;;;;;;;1.73;94.86;97795.32;106568;1276;24288;-58
2023/01/18 10:33:42;;;;;;;41.70;19.20;;;;;;;1.74;94.75;97799.29;106583;1277;22534;-58
2023/01/18 10:36:17;;;;;;;41.10;17.40;;;;;;;1.77;94.89;97800.59;106543;1277;22534;-56
2023/01/18 10:38:51;;;;;;;37.20;16.60;;;;;;;1.79;94.97;97801.66;106590;1277;22526;-58
2023/01/18 10:41:24;;;;;;;37.10;18.10;;;;;;;1.82;94.98;97800.40;106557;1276;22531;-56
2023/01/18 10:43:55;;;;;;;36.30;17.50;;;;;;;1.87;95.05;97797.63;106400;1276;22548;-59
2023/01/18 10:46:26;;;;;;;36.60;15.50;;;;;;;1.91;95.20;97792.73;106513;1264;22552;-58
2023/01/18 10:48:58;;;;;;;38.60;16.90;;;;;;;1.94;95.15;97799.08;106542;1277;22565;-58
2023/01/18 10:51:34;;;;;;;40.60;17.40;;;;;;;1.97;95.15;97806.83;106503;1277;23025;-59
2023/01/18 10:54:23;;;;;;;38.30;16.40;;;;;;;1.96;94.94;97808.56;106517;1275;26538;-57
2023/01/18 10:57:03;;;;;;;37.40;16.20;;;;;;;1.92;94.84;97809.40;106507;1277;24278;-58
2023/01/18 10:59:40;;;;;;;39.40;16.80;;;;;;;1.91;95.00;97810.08;106638;1262;26613;-59
2023/01/18 11:02:22;;;;;;;33.70;16.10;;;;;;;1.92;94.99;97816.20;106618;1271;22543;-60
2023/01/18 11:05:00;;;;;;;39.70;15.70;;;;;;;1.93;94.95;97819.36;106455;1277;22554;-59
2023/01/18 11:07:31;;;;;;;34.40;13.90;;;;;;;1.93;94.98;97821.46;106544;1273;27310;-58
2023/01/18 11:10:08;;;;;;;36.90;16.90;;;;;;;1.93;95.07;97823.11;106552;1277;22534;-58
2023/01/18 11:12:47;;;;;;;33.10;15.40;;;;;;;1.94;95.14;97824.94;106498;1277;22539;-57
2023/01/18 11:15:31;;;;;;;30.50;14.70;;;;;;;1.95;95.03;97830.30;106561;1272;24234;-58
2023/01/18 11:18:05;;;;;;;37.30;15.90;;;;;;;1.95;95.13;97827.29;106452;1277;25390;-56
2023/01/18 11:20:42;;;;;;;33.00;14.10;;;;;;;1.96;95.26;97829.05;106595;1270;22544;-59
2023/01/18 11:23:20;;;;;;;34.30;13.30;;;;;;;1.98;95.26;97829.68;106542;1277;25360;-58
2023/01/18 11:26:13;;;;;;;34.10;16.00;;;;;;;1.98;95.17;97831.98;106488;1264;24245;-56
2023/01/18 11:28:54;;;;;;;31.80;14.80;;;;;;;2.01;95.28;97833.38;106442;1277;24369;-57
2023/01/18 11:31:26;;;;;;;37.30;15.20;;;;;;;2.06;95.33;97837.27;106505;1277;25291;-58
2023/01/18 11:33:59;;;;;;;35.30;15.50;;;;;;;2.11;95.45;97841.73;106589;1277;25520;-57
2023/01/18 11:36:38;;;;;;;33.10;15.60;;;;;;;2.16;95.42;97843.39;106680;1273;22715;-56
2023/01/18 11:39:36;;;;;;;32.40;14.50;;;;;;;2.21;95.40;97848.41;106564;1270;25347;-57
2023/01/18 11:42:27;;;;;;;32.30;13.50;;;;;;;2.24;95.40;97849.66;106046;1282;24345;-55
2023/01/18 11:45:21;;;;;;;31.40;14.20;;;;;;;2.26;95.45;97855.80;106085;1271;22712;-58
2023/01/18 11:48:04;;;;;;;31.80;14.00;;;;;;;2.28;95.47;97854.91;106003;1277;25367;-57
2023/01/18 11:50:42;;;;;;;30.90;14.30;;;;;;;2.30;95.36;97860.40;106064;1282;23022;-58
2023/01/18 11:53:19;;;;;;;28.50;12.80;;;;;;;2.31;95.53;97854.57;106071;1282;25466;-58
2023/01/18 11:56:00;;;;;;;29.40;12.40;;;;;;;2.32;95.39;97857.67;106029;1277;22641;-59
2023/01/18 11:58:33;;;;;;;29.60;12.10;;;;;;;2.32;95.40;97861.13;105994;1270;22686;-58
2023/01/18 12:01:20;;;;;;;27.00;11.80;;;;;;;2.33;95.25;97870.76;106091;1282;24276;-59
2023/01/18 12:04:01;;;;;;;29.10;13.40;;;;;;;2.34;95.35;97875.48;105968;1282;25381;-58
2023/01/18 12:06:44;;;;;;;31.20;12.60;;;;;;;2.38;95.42;97879.34;106320;1277;25310;-59
2023/01/18 12:09:26;;;;;;;26.30;10.50;;;;;;;2.40;95.13;97879.30;106038;1270;25357;-59
2023/01/18 12:12:08;;;;;;;25.10;10.80;;;;;;;2.39;95.02;97880.75;105912;1280;22543;-60
2023/01/18 12:14:54;;;;;;;28.90;13.30;;;;;;;2.42;95.01;97881.88;106001;1282;24275;-58
2023/01/18 12:17:44;;;;;;;26.10;11.40;;;;;;;2.45;95.10;97885.92;106017;1282;23037;-58
2023/01/18 12:20:25;;;;;;;26.40;10.80;;;;;;;2.46;94.88;97885.49;106440;1277;22533;-56
2023/01/18 12:23:30;;;;;;;31.60;12.60;;;;;;;2.46;94.89;97891.30;106531;1270;22534;-58